Time;durP1;ratioP1;P1;durP2;ratioP2;P2;SDS_P1;SDS_P2;PMS_P1;PMS_P2;Temp;Humidity;BMP_temperature;BMP_pressure;BME280_temperature;BME280_humidity;BME280_pressure;Samples;Min_cycle;Max_cycle;Signal;HPM_P1;HPM_P2
2023/06/20 00:01:02;;;;;;;;;;;25.70;43.50;;;;;;1572035;75;767;-65
2023/06/20 00:03:04;;;;;;;;;;;25.70;43.90;;;;;;1568221;75;759;-65
2023/06/20 00:05:06;;;;;;;;;;;25.70;43.60;;;;;;1562734;75;767;-65
2023/06/20 00:07:08;;;;;;;;;;;25.60;43.90;;;;;;1569516;75;775;-65
2023/06/20 00:09:10;;;;;;;;;;;25.70;43.50;;;;;;1562919;75;1139;-64
2023/06/20 00:11:12;;;;;;;;;;;25.70;43.70;;;;;;1571226;74;737;-65
2023/06/20 00:13:17;;;;;;;;;;;25.70;43.40;;;;;;1571541;75;1588;-65
2023/06/20 00:15:25;;;;;;;;;;;25.70;43.50;;;;;;1560136;75;1624;-67
2023/06/20 00:17:21;;;;;;;;;;;25.60;43.90;;;;;;1560742;75;1923;-65
2023/06/20 00:19:23;;;;;;;;;;;25.70;43.60;;;;;;1562984;75;1078;-65
2023/06/20 00:21:25;;;;;;;;;;;25.70;43.60;;;;;;1577269;74;762;-66
2023/06/20 00:23:29;;;;;;;;;;;25.70;43.40;;;;;;1559407;75;772;-66
2023/06/20 00:25:31;;;;;;;;;;;25.70;43.50;;;;;;1566123;74;1692;-65
2023/06/20 00:27:33;;;;;;;;;;;25.60;43.50;;;;;;1574984;74;1332;-66
2023/06/20 00:29:35;;;;;;;;;;;25.70;43.50;;;;;;1560746;75;842;-66
2023/06/20 00:31:37;;;;;;;;;;;25.60;43.60;;;;;;1567252;75;715;-70
2023/06/20 00:33:38;;;;;;;;;;;25.60;43.80;;;;;;1560633;74;651;-67
2023/06/20 00:35:40;;;;;;;;;;;25.60;43.70;;;;;;1557382;75;695;-65
2023/06/20 00:37:42;;;;;;;;;;;25.60;43.60;;;;;;1575165;75;1947;-65
2023/06/20 00:39:44;;;;;;;;;;;25.60;43.40;;;;;;1576054;75;1131;-67
2023/06/20 00:41:46;;;;;;;;;;;25.60;43.70;;;;;;1571978;74;1516;-65
2023/06/20 00:43:48;;;;;;;;;;;25.60;43.40;;;;;;1572622;75;731;-65
2023/06/20 00:45:50;;;;;;;;;;;25.60;43.50;;;;;;1577088;75;665;-65
2023/06/20 00:47:52;;;;;;;;;;;25.60;43.60;;;;;;1575861;75;1189;-64
2023/06/20 00:49:54;;;;;;;;;;;25.60;43.60;;;;;;1518378;78;685;-65
2023/06/20 00:51:57;;;;;;;;;;;25.60;43.60;;;;;;1587280;74;716;-68
2023/06/20 00:53:59;;;;;;;;;;;25.60;43.70;;;;;;1570991;74;813;-66
2023/06/20 00:56:01;;;;;;;;;;;25.60;43.60;;;;;;1568764;74;1669;-66
2023/06/20 00:58:03;;;;;;;;;;;25.70;43.60;;;;;;1581546;74;1946;-66
2023/06/20 01:00:11;;;;;;;;;;;25.70;43.50;;;;;;1583467;74;713;-67
2023/06/20 01:02:10;;;;;;;;;;;25.70;43.60;;;;;;1579437;74;1415;-68
2023/06/20 01:04:12;;;;;;;;;;;25.70;43.40;;;;;;1586559;74;667;-66
2023/06/20 01:06:33;;;;;;;;;;;25.70;43.70;;;;;;1587576;74;694;-67
2023/06/20 01:08:36;;;;;;;;;;;25.70;43.60;;;;;;1581570;74;1686;-67
2023/06/20 01:10:49;;;;;;;;;;;25.70;43.50;;;;;;1573140;74;690;-66
2023/06/20 01:12:52;;;;;;;;;;;25.70;43.60;;;;;;1579252;74;1275;-67
2023/06/20 01:15:12;;;;;;;;;;;25.70;43.30;;;;;;1579885;74;690;-66
2023/06/20 01:17:16;;;;;;;;;;;25.60;43.30;;;;;;1569690;74;727;-66
2023/06/20 01:19:19;;;;;;;;;;;25.70;43.70;;;;;;1553252;74;1960;-65
2023/06/20 01:21:22;;;;;;;;;;;25.60;43.80;;;;;;1577097;74;679;-67
2023/06/20 01:23:25;;;;;;;;;;;25.70;43.60;;;;;;1583195;74;1560;-65
2023/06/20 01:25:34;;;;;;;;;;;25.70;43.40;;;;;;1577199;74;670;-66
2023/06/20 01:27:44;;;;;;;;;;;25.70;43.60;;;;;;1584287;74;1139;-65
2023/06/20 01:29:56;;;;;;;;;;;25.70;43.30;;;;;;1565504;74;1780;-65
2023/06/20 01:31:58;;;;;;;;;;;25.60;43.50;;;;;;1551537;74;1693;-65
2023/06/20 01:34:09;;;;;;;;;;;25.70;43.60;;;;;;1583641;74;747;-65
2023/06/20 01:36:11;;;;;;;;;;;25.70;43.60;;;;;;1577878;74;765;-67
2023/06/20 01:38:13;;;;;;;;;;;25.70;43.90;;;;;;1572204;74;1947;-65
2023/06/20 01:40:15;;;;;;;;;;;25.60;43.60;;;;;;1585567;74;1036;-66
2023/06/20 01:42:19;;;;;;;;;;;25.60;43.60;;;;;;1570127;74;697;-67
2023/06/20 01:44:21;;;;;;;;;;;25.70;43.60;;;;;;1573217;74;775;-65
2023/06/20 01:46:24;;;;;;;;;;;25.60;43.70;;;;;;1577686;74;746;-65
2023/06/20 01:48:26;;;;;;;;;;;25.60;43.70;;;;;;1584810;74;1199;-66
2023/06/20 01:50:30;;;;;;;;;;;25.60;43.70;;;;;;1575334;74;1541;-65
2023/06/20 01:52:33;;;;;;;;;;;25.60;43.70;;;;;;1576459;74;724;-65
2023/06/20 01:54:35;;;;;;;;;;;25.60;43.50;;;;;;1589762;74;939;-65
2023/06/20 01:56:37;;;;;;;;;;;25.60;43.60;;;;;;1567937;74;743;-66
2023/06/20 01:58:40;;;;;;;;;;;25.70;43.60;;;;;;1571603;74;1966;-66
2023/06/20 02:00:42;;;;;;;;;;;25.70;43.70;;;;;;1563712;74;696;-65
2023/06/20 02:02:44;;;;;;;;;;;25.60;44.10;;;;;;1590903;74;708;-66
2023/06/20 02:04:46;;;;;;;;;;;25.60;43.90;;;;;;1584180;74;1554;-64
2023/06/20 02:06:48;;;;;;;;;;;25.60;44.00;;;;;;1567226;74;718;-65
2023/06/20 02:08:50;;;;;;;;;;;25.60;43.60;;;;;;1580039;74;1167;-68
2023/06/20 02:10:52;;;;;;;;;;;25.60;43.90;;;;;;1577097;74;747;-64
2023/06/20 02:12:54;;;;;;;;;;;25.60;43.70;;;;;;1581307;74;779;-64
2023/06/20 02:14:57;;;;;;;;;;;25.60;43.80;;;;;;1559313;74;742;-65
2023/06/20 02:17:00;;;;;;;;;;;25.60;43.90;;;;;;1574983;74;682;-67
2023/06/20 02:19:02;;;;;;;;;;;25.60;43.70;;;;;;1581509;74;1929;-66
2023/06/20 02:21:05;;;;;;;;;;;25.50;43.90;;;;;;1587097;73;695;-66
2023/06/20 02:23:09;;;;;;;;;;;25.70;43.90;;;;;;1585010;74;739;-65
2023/06/20 02:25:13;;;;;;;;;;;25.60;44.00;;;;;;1587133;74;723;-65
2023/06/20 02:27:16;;;;;;;;;;;25.60;43.90;;;;;;1584448;74;739;-65
2023/06/20 02:29:18;;;;;;;;;;;25.60;43.70;;;;;;1587624;74;1123;-65
2023/06/20 02:31:21;;;;;;;;;;;25.60;43.90;;;;;;1573211;74;689;-65
2023/06/20 02:33:23;;;;;;;;;;;25.70;44.00;;;;;;1583153;74;1810;-65
2023/06/20 02:35:25;;;;;;;;;;;25.70;44.00;;;;;;1586940;74;760;-64
2023/06/20 02:37:29;;;;;;;;;;;25.60;43.80;;;;;;1574422;74;608;-65
2023/06/20 02:39:30;;;;;;;;;;;25.60;43.80;;;;;;1580299;74;1936;-64
2023/06/20 02:41:32;;;;;;;;;;;25.60;44.20;;;;;;1582721;74;729;-65
2023/06/20 02:43:34;;;;;;;;;;;25.70;44.20;;;;;;1586760;74;748;-64
2023/06/20 02:45:36;;;;;;;;;;;25.70;44.20;;;;;;1571042;74;707;-65
2023/06/20 02:47:58;;;;;;;;;;;25.60;44.20;;;;;;1585211;74;1516;-66
2023/06/20 02:50:02;;;;;;;;;;;25.60;44.20;;;;;;1584633;74;2020;-65
2023/06/20 02:52:06;;;;;;;;;;;25.60;44.30;;;;;;1572961;74;2190;-65
2023/06/20 02:54:15;;;;;;;;;;;25.60;44.20;;;;;;1589399;74;734;-65
2023/06/20 02:56:17;;;;;;;;;;;25.50;44.00;;;;;;1577063;74;731;-69
2023/06/20 02:58:19;;;;;;;;;;;25.50;43.90;;;;;;1565054;74;1932;-66
2023/06/20 03:00:21;;;;;;;;;;;25.50;44.10;;;;;;1568824;74;694;-66
2023/06/20 03:02:23;;;;;;;;;;;25.50;43.90;;;;;;1579414;74;1700;-65
2023/06/20 03:04:26;;;;;;;;;;;25.50;44.10;;;;;;1585483;74;677;-66
2023/06/20 03:06:28;;;;;;;;;;;25.50;44.30;;;;;;1578652;74;753;-65
2023/06/20 03:08:30;;;;;;;;;;;25.60;44.10;;;;;;1584292;74;1144;-64
2023/06/20 03:10:32;;;;;;;;;;;25.50;43.90;;;;;;1572971;74;683;-65
2023/06/20 03:12:34;;;;;;;;;;;25.50;43.90;;;;;;1560878;74;695;-65
2023/06/20 03:14:36;;;;;;;;;;;25.50;43.90;;;;;;1585067;74;733;-65
2023/06/20 03:16:37;;;;;;;;;;;25.60;44.00;;;;;;1572830;74;1712;-65
2023/06/20 03:18:39;;;;;;;;;;;25.60;43.90;;;;;;1577791;74;1929;-66
2023/06/20 03:20:43;;;;;;;;;;;25.50;43.90;;;;;;1565395;74;730;-65
2023/06/20 03:22:45;;;;;;;;;;;25.60;43.90;;;;;;1578614;74;737;-65
2023/06/20 03:24:49;;;;;;;;;;;25.60;44.00;;;;;;1553718;74;715;-66
2023/06/20 03:26:50;;;;;;;;;;;25.60;43.90;;;;;;1568426;74;776;-65
2023/06/20 03:28:52;;;;;;;;;;;25.60;43.90;;;;;;1581075;74;1571;-66
2023/06/20 03:30:54;;;;;;;;;;;25.60;43.80;;;;;;1579710;74;744;-65
2023/06/20 03:32:56;;;;;;;;;;;25.50;43.80;;;;;;1564493;74;884;-65
2023/06/20 03:34:58;;;;;;;;;;;25.50;44.00;;;;;;1577451;74;632;-65
2023/06/20 03:37:00;;;;;;;;;;;25.60;43.90;;;;;;1576115;74;695;-65
2023/06/20 03:39:01;;;;;;;;;;;25.60;43.90;;;;;;1569134;74;1946;-65
2023/06/20 03:41:03;;;;;;;;;;;25.60;43.90;;;;;;1574983;74;1087;-65
2023/06/20 03:43:05;;;;;;;;;;;25.60;44.00;;;;;;1564339;75;1321;-65
2023/06/20 03:45:08;;;;;;;;;;;25.60;43.80;;;;;;1552324;75;766;-65
2023/06/20 03:47:09;;;;;;;;;;;25.60;43.80;;;;;;1558713;74;677;-65
2023/06/20 03:49:11;;;;;;;;;;;25.60;44.00;;;;;;1564725;74;1167;-65
2023/06/20 04:46:14;;;;;;;;;;;25.40;44.50;;;;;;1612482;72;1600;-63
2023/06/20 04:48:16;;;;;;;;;;;25.40;44.50;;;;;;1606455;72;1176;-62
2023/06/20 04:50:18;;;;;;;;;;;25.50;44.60;;;;;;1611211;73;651;-62
2023/06/20 04:52:20;;;;;;;;;;;25.30;44.80;;;;;;1603340;73;716;-62
2023/06/20 04:54:22;;;;;;;;;;;25.50;44.80;;;;;;1607845;73;1476;-62
2023/06/20 04:56:24;;;;;;;;;;;25.50;44.90;;;;;;1614727;73;845;-63
2023/06/20 04:58:28;;;;;;;;;;;25.40;44.70;;;;;;1612112;72;1135;-62
2023/06/20 05:00:30;;;;;;;;;;;25.50;45.00;;;;;;1603937;73;1925;-63
2023/06/20 05:02:31;;;;;;;;;;;25.50;44.70;;;;;;1608165;73;684;-62
2023/06/20 05:04:33;;;;;;;;;;;25.40;44.70;;;;;;1616849;73;716;-61
2023/06/20 05:06:35;;;;;;;;;;;25.40;45.00;;;;;;1612112;73;680;-62
2023/06/20 05:08:37;;;;;;;;;;;25.40;45.20;;;;;;1607257;73;1340;-61
2023/06/20 05:10:39;;;;;;;;;;;25.40;45.20;;;;;;1608890;73;655;-62
2023/06/20 05:12:41;;;;;;;;;;;25.40;45.10;;;;;;1596366;73;776;-62
2023/06/20 05:14:43;;;;;;;;;;;25.50;45.10;;;;;;1611223;72;673;-61
2023/06/20 05:16:45;;;;;;;;;;;25.40;45.10;;;;;;1610462;73;681;-63
2023/06/20 05:18:46;;;;;;;;;;;25.40;45.20;;;;;;1613817;72;1136;-62
2023/06/20 05:20:50;;;;;;;;;;;25.40;45.30;;;;;;1623699;73;1937;-61
2023/06/20 05:22:52;;;;;;;;;;;25.40;45.60;;;;;;1606494;73;1566;-63
2023/06/20 05:24:54;;;;;;;;;;;25.40;45.60;;;;;;1610886;73;725;-61
2023/06/20 05:26:56;;;;;;;;;;;25.40;45.80;;;;;;1610939;73;858;-62
2023/06/20 05:28:58;;;;;;;;;;;25.50;45.90;;;;;;1605578;73;1153;-62
2023/06/20 05:31:00;;;;;;;;;;;25.50;45.90;;;;;;1612538;73;892;-62
2023/06/20 05:33:01;;;;;;;;;;;25.40;45.90;;;;;;1611065;73;757;-62
2023/06/20 05:35:05;;;;;;;;;;;25.50;45.80;;;;;;1598961;73;744;-61
2023/06/20 05:37:07;;;;;;;;;;;25.50;45.90;;;;;;1623401;72;1324;-63
2023/06/20 05:39:13;;;;;;;;;;;25.50;45.70;;;;;;1583482;73;1930;-62
2023/06/20 05:41:14;;;;;;;;;;;25.50;46.20;;;;;;1609842;72;1518;-61
2023/06/20 05:43:16;;;;;;;;;;;25.40;46.30;;;;;;1612976;73;690;-62
2023/06/20 05:45:18;;;;;;;;;;;25.50;46.30;;;;;;1615497;73;729;-60
2023/06/20 05:47:20;;;;;;;;;;;25.50;46.00;;;;;;1615634;73;719;-62
2023/06/20 05:49:22;;;;;;;;;;;25.40;46.30;;;;;;1622353;72;1083;-62
2023/06/20 05:51:24;;;;;;;;;;;25.50;46.50;;;;;;1603645;73;1605;-62
2023/06/20 05:53:26;;;;;;;;;;;25.50;46.10;;;;;;1617543;73;730;-62
2023/06/20 05:55:28;;;;;;;;;;;25.50;46.10;;;;;;1610915;73;671;-62
2023/06/20 05:57:30;;;;;;;;;;;25.50;46.10;;;;;;1602418;73;1152;-62
2023/06/20 05:59:32;;;;;;;;;;;25.50;46.00;;;;;;1615004;73;1945;-61
2023/06/20 06:01:33;;;;;;;;;;;25.50;45.70;;;;;;1620270;72;703;-61
2023/06/20 06:03:35;;;;;;;;;;;25.50;45.70;;;;;;1613286;73;1532;-61
2023/06/20 06:05:39;;;;;;;;;;;25.50;45.60;;;;;;1610538;73;781;-61
2023/06/20 06:07:41;;;;;;;;;;;25.50;45.80;;;;;;1612203;72;1140;-62
2023/06/20 06:09:42;;;;;;;;;;;25.50;45.60;;;;;;1612925;72;685;-63
2023/06/20 06:11:45;;;;;;;;;;;25.50;45.70;;;;;;1615190;73;682;-61
2023/06/20 06:13:47;;;;;;;;;;;25.60;45.60;;;;;;1606241;73;722;-61
2023/06/20 06:15:49;;;;;;;;;;;25.50;45.60;;;;;;1613052;72;607;-62
2023/06/20 06:17:51;;;;;;;;;;;25.50;45.60;;;;;;1605906;73;1607;-61
2023/06/20 06:19:53;;;;;;;;;;;25.50;45.60;;;;;;1611765;73;1937;-61
2023/06/20 06:21:55;;;;;;;;;;;25.60;45.60;;;;;;1609071;73;694;-61
2023/06/20 06:23:57;;;;;;;;;;;25.50;45.70;;;;;;1616256;73;665;-62
2023/06/20 06:26:00;;;;;;;;;;;25.50;45.70;;;;;;1615695;72;791;-61
2023/06/20 06:28:03;;;;;;;;;;;25.50;45.70;;;;;;1624364;72;1165;-62
2023/06/20 06:30:06;;;;;;;;;;;25.60;45.60;;;;;;1604238;72;755;-62
2023/06/20 06:32:08;;;;;;;;;;;25.60;45.60;;;;;;1611580;72;1538;-61
2023/06/20 06:34:10;;;;;;;;;;;25.50;45.60;;;;;;1613015;72;803;-62
2023/06/20 06:36:11;;;;;;;;;;;25.50;45.60;;;;;;1609115;73;681;-61
2023/06/20 06:38:13;;;;;;;;;;;25.50;45.50;;;;;;1614119;73;1141;-62
2023/06/20 06:40:15;;;;;;;;;;;25.50;45.50;;;;;;1610159;73;1925;-61
2023/06/20 06:42:17;;;;;;;;;;;25.50;45.50;;;;;;1612303;72;687;-62
2023/06/20 06:44:19;;;;;;;;;;;25.60;45.70;;;;;;1607318;73;762;-62
2023/06/20 06:46:21;;;;;;;;;;;25.50;45.60;;;;;;1612595;72;1580;-61
2023/06/20 06:48:23;;;;;;;;;;;25.50;45.60;;;;;;1606651;73;1144;-61
2023/06/20 06:50:25;;;;;;;;;;;25.60;45.50;;;;;;1621268;72;732;-62
2023/06/20 06:52:27;;;;;;;;;;;25.50;45.60;;;;;;1614000;72;671;-61
2023/06/20 06:54:29;;;;;;;;;;;25.50;45.60;;;;;;1614674;72;743;-62
2023/06/20 06:56:31;;;;;;;;;;;25.50;45.70;;;;;;1610401;72;782;-62
2023/06/20 06:58:32;;;;;;;;;;;25.50;45.50;;;;;;1600405;72;1162;-62
2023/06/20 07:00:34;;;;;;;;;;;25.50;45.50;;;;;;1615131;72;1937;-60
2023/06/20 07:02:36;;;;;;;;;;;25.50;45.50;;;;;;1614840;73;693;-62
2023/06/20 07:04:38;;;;;;;;;;;25.50;45.60;;;;;;1614613;72;812;-63
2023/06/20 07:06:40;;;;;;;;;;;25.40;46.50;;;;;;1610169;72;715;-63
2023/06/20 07:08:42;;;;;;;;;;;25.40;46.70;;;;;;1614842;72;1107;-63
2023/06/20 07:10:44;;;;;;;;;;;25.30;46.30;;;;;;1614257;72;661;-63
2023/06/20 07:12:46;;;;;;;;;;;25.30;47.60;;;;;;1610192;73;730;-63
2023/06/20 07:14:50;;;;;;;;;;;25.40;47.70;;;;;;1613953;72;1214;-63
2023/06/20 07:16:52;;;;;;;;;;;25.20;47.80;;;;;;1615142;72;1846;-61
2023/06/20 07:18:54;;;;;;;;;;;25.30;47.90;;;;;;1615587;72;1144;-61
2023/06/20 07:20:59;;;;;;;;;;;25.30;47.60;;;;;;1617839;73;1948;-62
2023/06/20 07:23:01;;;;;;;;;;;25.30;48.20;;;;;;1616926;72;893;-61
2023/06/20 07:25:03;;;;;;;;;;;25.40;47.80;;;;;;1616511;73;681;-61
2023/06/20 07:27:05;;;;;;;;;;;25.40;47.80;;;;;;1620541;73;727;-60
2023/06/20 07:29:07;;;;;;;;;;;25.40;48.10;;;;;;1615707;71;1497;-61
2023/06/20 07:31:11;;;;;;;;;;;25.50;47.90;;;;;;1616415;72;680;-60
2023/06/20 07:33:13;;;;;;;;;;;25.40;47.80;;;;;;1616864;73;928;-61
2023/06/20 07:35:15;;;;;;;;;;;25.50;48.60;;;;;;1591657;73;691;-61
2023/06/20 07:37:16;;;;;;;;;;;25.50;48.60;;;;;;1611278;72;728;-61
2023/06/20 07:39:18;;;;;;;;;;;25.50;48.90;;;;;;1613278;72;1120;-62
2023/06/20 07:41:20;;;;;;;;;;;25.50;49.00;;;;;;1611891;72;1932;-62
2023/06/20 07:43:24;;;;;;;;;;;25.50;49.00;;;;;;1618291;73;1354;-61
2023/06/20 07:45:26;;;;;;;;;;;25.50;48.70;;;;;;1610445;72;1667;-61
2023/06/20 07:47:28;;;;;;;;;;;25.50;49.00;;;;;;1616809;72;677;-60
2023/06/20 07:49:29;;;;;;;;;;;25.50;49.20;;;;;;1619958;73;719;-60
2023/06/20 07:51:33;;;;;;;;;;;25.70;48.50;;;;;;1612084;72;784;-60
2023/06/20 07:53:35;;;;;;;;;;;25.80;48.20;;;;;;1616808;72;678;-60
2023/06/20 07:55:38;;;;;;;;;;;25.90;48.70;;;;;;1608516;72;754;-61
2023/06/20 07:57:40;;;;;;;;;;;25.90;47.70;;;;;;1621784;71;1418;-61
2023/06/20 07:59:42;;;;;;;;;;;26.00;48.00;;;;;;1619036;72;791;-61
2023/06/20 08:01:43;;;;;;;;;;;26.10;48.50;;;;;;1610226;72;1943;-60
2023/06/20 08:03:45;;;;;;;;;;;26.10;47.70;;;;;;1596423;73;638;-61
2023/06/20 08:05:47;;;;;;;;;;;26.20;47.30;;;;;;1603791;73;713;-61
2023/06/20 08:07:49;;;;;;;;;;;26.30;46.80;;;;;;1610372;73;1133;-63
2023/06/20 08:09:51;;;;;;;;;;;26.30;46.70;;;;;;1615190;73;781;-64
2023/06/20 08:11:53;;;;;;;;;;;26.40;47.10;;;;;;1615262;73;1500;-64
2023/06/20 08:13:55;;;;;;;;;;;26.30;47.00;;;;;;1611466;73;741;-62
2023/06/20 08:15:57;;;;;;;;;;;26.30;46.70;;;;;;1620403;73;729;-64
2023/06/20 08:17:59;;;;;;;;;;;26.30;46.80;;;;;;1617904;72;1233;-62
2023/06/20 08:20:01;;;;;;;;;;;26.30;46.30;;;;;;1622838;73;1930;-61
2023/06/20 08:22:03;;;;;;;;;;;26.30;46.40;;;;;;1607012;73;643;-63
2023/06/20 08:24:05;;;;;;;;;;;26.40;46.20;;;;;;1616442;73;679;-62
2023/06/20 08:26:07;;;;;;;;;;;26.40;46.30;;;;;;1617218;73;1568;-63
2023/06/20 08:28:09;;;;;;;;;;;26.40;46.00;;;;;;1620913;72;1178;-63
2023/06/20 08:30:11;;;;;;;;;;;26.50;45.90;;;;;;1615238;73;721;-66
2023/06/20 08:32:13;;;;;;;;;;;26.50;45.70;;;;;;1619206;72;649;-63
2023/06/20 08:34:15;;;;;;;;;;;26.50;45.70;;;;;;1621466;73;674;-64
2023/06/20 08:36:20;;;;;;;;;;;26.40;45.50;;;;;;1619716;73;727;-62
2023/06/20 08:38:20;;;;;;;;;;;26.50;45.50;;;;;;1605648;72;1740;-63
2023/06/20 08:40:22;;;;;;;;;;;26.40;45.30;;;;;;1615935;72;1932;-62
2023/06/20 08:42:24;;;;;;;;;;;26.50;45.40;;;;;;1615044;73;700;-63
2023/06/20 08:44:26;;;;;;;;;;;26.50;45.20;;;;;;1615611;73;695;-64
2023/06/20 08:46:28;;;;;;;;;;;26.50;45.20;;;;;;1605094;73;666;-63
2023/06/20 08:48:30;;;;;;;;;;;26.40;45.00;;;;;;1607080;72;1139;-62
2023/06/20 08:50:32;;;;;;;;;;;26.40;45.10;;;;;;1605769;73;731;-62
2023/06/20 08:52:35;;;;;;;;;;;26.50;45.00;;;;;;1606242;73;1670;-62
2023/06/20 08:54:41;;;;;;;;;;;26.50;45.00;;;;;;1606958;73;654;-63
2023/06/20 08:56:44;;;;;;;;;;;26.50;44.90;;;;;;1610534;72;737;-63
2023/06/20 08:58:45;;;;;;;;;;;26.50;44.70;;;;;;1612216;73;1104;-63
2023/06/20 09:00:48;;;;;;;;;;;26.50;44.50;;;;;;1597863;73;1928;-63
2023/06/20 09:02:53;;;;;;;;;;;26.50;44.50;;;;;;1606319;72;719;-62
2023/06/20 09:05:02;;;;;;;;;;;26.50;44.60;;;;;;1610218;73;656;-62
2023/06/20 09:07:06;;;;;;;;;;;26.50;44.60;;;;;;1618643;73;1546;-62
2023/06/20 09:09:09;;;;;;;;;;;26.50;44.60;;;;;;1619193;73;1831;-65
2023/06/20 09:11:11;;;;;;;;;;;26.60;44.60;;;;;;1605409;72;1815;-62
2023/06/20 09:13:13;;;;;;;;;;;26.50;44.50;;;;;;1612678;72;650;-63
2023/06/20 09:15:15;;;;;;;;;;;26.50;44.40;;;;;;1596935;72;658;-62
2023/06/20 09:17:19;;;;;;;;;;;26.50;44.40;;;;;;1609401;72;724;-64
2023/06/20 09:19:21;;;;;;;;;;;26.60;44.20;;;;;;1613863;72;1136;-63
2023/06/20 09:21:23;;;;;;;;;;;26.60;44.20;;;;;;1612492;73;1914;-65
2023/06/20 09:23:29;;;;;;;;;;;26.60;44.10;;;;;;1572732;73;720;-64
2023/06/20 09:25:31;;;;;;;;;;;26.60;44.10;;;;;;1613663;72;684;-62
2023/06/20 09:27:36;;;;;;;;;;;26.60;43.50;;;;;;1607874;73;1190;-62
2023/06/20 09:30:00;;;;;;;;;;;26.60;43.70;;;;;;1607913;73;681;-62
2023/06/20 09:31:54;;;;;;;;;;;26.50;43.60;;;;;;1621835;72;1619;-65
2023/06/20 09:33:56;;;;;;;;;;;26.50;43.20;;;;;;1617379;72;710;-64
2023/06/20 09:36:14;;;;;;;;;;;26.60;43.20;;;;;;1609643;73;1559;-65
2023/06/20 09:38:16;;;;;;;;;;;26.60;43.00;;;;;;1617763;72;1137;-64
2023/06/20 09:40:20;;;;;;;;;;;26.60;43.00;;;;;;1608642;73;691;-68
2023/06/20 09:42:22;;;;;;;;;;;26.60;43.10;;;;;;1588214;72;1940;-63
2023/06/20 09:44:25;;;;;;;;;;;26.60;43.20;;;;;;1604249;73;641;-63
2023/06/20 09:46:27;;;;;;;;;;;26.50;43.20;;;;;;1619325;73;697;-64
2023/06/20 09:48:29;;;;;;;;;;;26.60;43.20;;;;;;1620336;72;1075;-64
2023/06/20 09:50:30;;;;;;;;;;;26.50;43.40;;;;;;1616979;73;1733;-63
2023/06/20 09:52:43;;;;;;;;;;;26.50;43.40;;;;;;1620836;73;726;-63
2023/06/20 09:54:47;;;;;;;;;;;26.50;43.40;;;;;;1619693;73;1736;-64
2023/06/20 09:56:49;;;;;;;;;;;26.50;43.30;;;;;;1571156;70;228529;-74
2023/06/20 09:58:51;;;;;;;;;;;26.50;43.30;;;;;;1542286;75;697;-72
2023/06/20 10:00:53;;;;;;;;;;;26.50;43.10;;;;;;1543951;75;1940;-72
2023/06/20 10:02:55;;;;;;;;;;;26.50;43.20;;;;;;1543768;75;1568;-74
2023/06/20 10:04:57;;;;;;;;;;;26.60;43.30;;;;;;1541431;75;757;-71
2023/06/20 10:06:59;;;;;;;;;;;26.50;43.20;;;;;;1540709;75;1178;-73
2023/06/20 10:09:01;;;;;;;;;;;26.50;43.20;;;;;;1533825;76;685;-70
2023/06/20 10:11:03;;;;;;;;;;;26.50;43.10;;;;;;1538553;75;769;-75
2023/06/20 10:13:04;;;;;;;;;;;26.60;43.10;;;;;;1540667;75;747;-72
2023/06/20 10:15:10;;;;;;;;;;;26.60;43.00;;;;;;1532613;75;733;-72
2023/06/20 10:17:15;;;;;;;;;;;26.50;43.10;;;;;;1544756;74;1650;-72
2023/06/20 10:19:17;;;;;;;;;;;26.50;43.00;;;;;;1540537;75;682;-74
2023/06/20 10:21:19;;;;;;;;;;;26.50;43.10;;;;;;1543855;75;1928;-73
2023/06/20 10:23:22;;;;;;;;;;;26.50;43.10;;;;;;1519310;77;713;-73
2023/06/20 10:25:25;;;;;;;;;;;26.50;43.10;;;;;;1537355;75;618;-73
2023/06/20 10:27:27;;;;;;;;;;;26.60;43.00;;;;;;1540151;75;1233;-73
2023/06/20 10:29:29;;;;;;;;;;;26.50;42.90;;;;;;1522465;77;708;-74
2023/06/20 10:31:33;;;;;;;;;;;26.60;42.90;;;;;;1539560;75;1570;-73
2023/06/20 10:33:37;;;;;;;;;;;26.50;42.80;;;;;;1544860;75;1704;-73
2023/06/20 10:35:51;;;;;;;;;;;26.50;42.30;;;;;;1552596;76;907;-76
2023/06/20 10:37:53;;;;;;;;;;;26.50;42.30;;;;;;1545989;75;1099;-74
2023/06/20 10:39:55;;;;;;;;;;;26.50;42.10;;;;;;1543628;75;1176;-75
2023/06/20 10:41:57;;;;;;;;;;;26.50;42.30;;;;;;1540132;75;1920;-73
2023/06/20 10:43:59;;;;;;;;;;;26.60;42.30;;;;;;1539271;76;759;-74
2023/06/20 10:46:01;;;;;;;;;;;26.60;42.20;;;;;;1533855;75;1702;-73
2023/06/20 10:48:03;;;;;;;;;;;26.50;41.90;;;;;;1529691;74;1135;-73
2023/06/20 10:50:05;;;;;;;;;;;26.50;41.90;;;;;;1538532;75;692;-73
2023/06/20 10:52:07;;;;;;;;;;;26.50;41.90;;;;;;1546125;74;736;-73
2023/06/20 10:54:09;;;;;;;;;;;26.50;41.90;;;;;;1544299;75;668;-71
2023/06/20 10:56:26;;;;;;;;;;;26.50;41.90;;;;;;1538725;76;748;-73
2023/06/20 10:58:28;;;;;;;;;;;26.40;41.70;;;;;;1536169;75;820;-73
2023/06/20 11:00:30;;;;;;;;;;;26.40;41.50;;;;;;1551043;75;1626;-73
2023/06/20 11:02:33;;;;;;;;;;;26.50;41.20;;;;;;1539853;75;1913;-72
2023/06/20 11:04:35;;;;;;;;;;;26.40;41.50;;;;;;1520328;77;733;-74
2023/06/20 11:06:37;;;;;;;;;;;26.40;41.20;;;;;;1552084;75;1153;-74
2023/06/20 11:08:38;;;;;;;;;;;26.40;40.90;;;;;;1543235;75;934;-73
2023/06/20 11:10:41;;;;;;;;;;;26.40;40.90;;;;;;1525356;77;1188;-72
2023/06/20 11:12:43;;;;;;;;;;;26.40;41.00;;;;;;1537138;76;1019;-73
2023/06/20 11:14:45;;;;;;;;;;;26.40;41.00;;;;;;1540212;75;1612;-74
2023/06/20 11:16:47;;;;;;;;;;;26.40;41.10;;;;;;1539135;75;1138;-73
2023/06/20 11:18:49;;;;;;;;;;;26.40;40.70;;;;;;1543193;75;674;-76
2023/06/20 11:20:51;;;;;;;;;;;26.40;40.80;;;;;;1539033;76;675;-71
2023/06/20 11:22:53;;;;;;;;;;;26.40;40.80;;;;;;1537375;76;1950;-72
2023/06/20 11:24:55;;;;;;;;;;;26.50;40.80;;;;;;1539875;75;1081;-72
2023/06/20 11:26:59;;;;;;;;;;;26.40;41.00;;;;;;1540720;75;1185;-72
2023/06/20 11:29:01;;;;;;;;;;;26.30;41.20;;;;;;1544493;75;1929;-75
2023/06/20 11:31:04;;;;;;;;;;;26.30;41.10;;;;;;1543173;75;817;-74
2023/06/20 11:33:10;;;;;;;;;;;26.40;41.00;;;;;;1547288;75;939;-72
2023/06/20 11:35:13;;;;;;;;;;;26.30;41.10;;;;;;1533669;75;705;-71
2023/06/20 11:37:15;;;;;;;;;;;26.40;41.00;;;;;;1539851;75;1184;-72
2023/06/20 11:39:17;;;;;;;;;;;26.30;41.00;;;;;;1547110;75;745;-72
2023/06/20 11:41:19;;;;;;;;;;;26.40;41.00;;;;;;1552303;76;1930;-73
2023/06/20 11:43:25;;;;;;;;;;;26.40;40.60;;;;;;1533618;75;705;-72
2023/06/20 11:45:27;;;;;;;;;;;26.40;40.90;;;;;;1557514;75;1937;-72
2023/06/20 11:47:30;;;;;;;;;;;26.40;40.90;;;;;;1550742;75;1144;-72
2023/06/20 11:49:32;;;;;;;;;;;26.40;40.70;;;;;;1539988;76;669;-75
2023/06/20 11:51:34;;;;;;;;;;;26.40;40.90;;;;;;1546428;75;761;-74
2023/06/20 11:53:36;;;;;;;;;;;26.40;40.70;;;;;;1543470;75;720;-72
2023/06/20 11:55:46;;;;;;;;;;;26.40;40.80;;;;;;1549221;76;1336;-73
2023/06/20 11:57:48;;;;;;;;;;;26.40;40.80;;;;;;1538294;75;1116;-71
2023/06/20 11:59:50;;;;;;;;;;;26.30;40.80;;;;;;1548085;75;588;-73
2023/06/20 12:01:52;;;;;;;;;;;26.30;41.20;;;;;;1540642;75;1935;-73
2023/06/20 12:04:03;;;;;;;;;;;26.40;40.80;;;;;;1541677;75;676;-73
2023/06/20 12:06:23;;;;;;;;;;;26.40;40.70;;;;;;1536571;76;830;-75
2023/06/20 12:08:25;;;;;;;;;;;26.40;40.70;;;;;;1547568;75;730;-74
2023/06/20 12:10:28;;;;;;;;;;;26.30;40.90;;;;;;1540410;75;1598;-72
2023/06/20 12:12:31;;;;;;;;;;;26.40;40.80;;;;;;1551710;75;749;-74
2023/06/20 12:14:34;;;;;;;;;;;26.40;40.40;;;;;;1537722;75;707;-74
2023/06/20 12:16:36;;;;;;;;;;;26.40;40.10;;;;;;1547561;75;1149;-72
2023/06/20 12:18:39;;;;;;;;;;;26.40;40.40;;;;;;1535748;75;790;-73
2023/06/20 12:20:41;;;;;;;;;;;26.40;40.50;;;;;;1544320;75;754;-74
2023/06/20 12:22:42;;;;;;;;;;;26.40;40.30;;;;;;1542534;75;1943;-75
2023/06/20 12:24:45;;;;;;;;;;;26.40;40.50;;;;;;1540337;76;1605;-75
2023/06/20 12:26:51;;;;;;;;;;;26.40;40.40;;;;;;1539190;75;1113;-75
2023/06/20 12:28:51;;;;;;;;;;;26.30;40.30;;;;;;1538994;75;2114;-72
2023/06/20 12:30:53;;;;;;;;;;;26.40;40.50;;;;;;1546891;75;795;-73
2023/06/20 12:32:55;;;;;;;;;;;26.30;40.50;;;;;;1539524;76;729;-76
2023/06/20 12:34:57;;;;;;;;;;;26.40;40.10;;;;;;1538361;75;629;-74
2023/06/20 12:36:59;;;;;;;;;;;26.40;40.30;;;;;;1544909;75;1185;-72
2023/06/20 12:39:01;;;;;;;;;;;26.30;40.10;;;;;;1530811;75;1658;-74
2023/06/20 12:41:03;;;;;;;;;;;26.40;40.30;;;;;;1539256;75;751;-72
2023/06/20 12:43:05;;;;;;;;;;;26.40;40.00;;;;;;1538830;75;1925;-74
2023/06/20 12:45:08;;;;;;;;;;;26.40;40.10;;;;;;1546129;75;778;-74
2023/06/20 12:47:11;;;;;;;;;;;26.40;40.00;;;;;;1546250;75;1141;-72
2023/06/20 12:49:13;;;;;;;;;;;26.40;40.00;;;;;;1540023;75;798;-72
2023/06/20 12:51:15;;;;;;;;;;;26.40;40.20;;;;;;1542233;75;821;-73
2023/06/20 12:53:17;;;;;;;;;;;26.30;40.20;;;;;;1536905;75;1585;-74
2023/06/20 12:55:20;;;;;;;;;;;26.30;40.10;;;;;;1538141;75;672;-77
2023/06/20 12:57:25;;;;;;;;;;;26.30;40.10;;;;;;1532962;75;1154;-75
2023/06/20 12:59:25;;;;;;;;;;;26.30;40.10;;;;;;1541525;75;1592;-73
2023/06/20 13:01:27;;;;;;;;;;;26.30;40.30;;;;;;1543553;75;961;-73
2023/06/20 13:03:29;;;;;;;;;;;26.30;40.70;;;;;;1542210;75;1939;-74
2023/06/20 13:05:33;;;;;;;;;;;26.40;40.50;;;;;;1541027;75;1546;-73
2023/06/20 13:07:35;;;;;;;;;;;26.30;40.50;;;;;;1543877;75;2096;-74